createdAt,value
2017-12-30T00:01:34.732Z,8.57
2017-12-30T00:04:00.699Z,7.20
2017-12-30T00:06:27.436Z,7.68
2017-12-30T00:08:54.183Z,11.40
2017-12-30T00:11:20.910Z,7.47
2017-12-30T00:13:46.911Z,7.80
2017-12-30T00:16:13.169Z,7.50
2017-12-30T00:18:39.883Z,7.22
2017-12-30T00:21:05.840Z,8.65
2017-12-30T00:23:33.813Z,8.85
2017-12-30T00:25:59.791Z,8.07
2017-12-30T00:28:25.773Z,8.75
2017-12-30T00:30:51.751Z,10.48
2017-12-30T00:33:17.759Z,11.85
2017-12-30T00:35:43.731Z,9.05
2017-12-30T00:38:10.804Z,8.60
2017-12-30T00:40:36.777Z,8.55
2017-12-30T00:43:03.478Z,6.78
2017-12-30T00:45:29.456Z,6.82
2017-12-30T00:47:55.452Z,5.70
2017-12-30T00:50:21.452Z,7.07
2017-12-30T00:52:47.418Z,6.30
2017-12-30T00:55:14.116Z,10.50
2017-12-30T00:57:40.081Z,7.55
2017-12-30T01:00:06.088Z,7.62
2017-12-30T01:02:32.803Z,7.03
2017-12-30T01:04:58.776Z,7.50
2017-12-30T01:07:24.775Z,6.60
2017-12-30T01:09:51.479Z,8.50
2017-12-30T01:12:17.454Z,10.57
2017-12-30T01:14:43.431Z,7.60
2017-12-30T01:17:09.391Z,8.23
2017-12-30T01:19:35.391Z,8.00
2017-12-30T01:22:01.356Z,8.43
2017-12-30T01:24:27.319Z,7.37
2017-12-30T01:26:54.379Z,8.10
2017-12-30T01:29:21.086Z,9.10
2017-12-30T01:31:47.066Z,8.68
2017-12-30T01:34:13.081Z,11.30
2017-12-30T01:36:39.032Z,8.10
2017-12-30T01:39:04.991Z,9.65
2017-12-30T01:41:30.963Z,6.85
2017-12-30T01:43:56.922Z,8.63
2017-12-30T01:46:22.888Z,8.70
2017-12-30T01:49:01.745Z,9.73
2017-12-30T01:51:27.776Z,9.27
2017-12-30T01:53:53.753Z,8.15
2017-12-30T01:56:19.719Z,8.83
2017-12-30T01:58:45.712Z,7.82
2017-12-30T02:01:11.689Z,9.30
2017-12-30T02:03:37.671Z,10.13
2017-12-30T02:06:03.641Z,10.85
2017-12-30T02:08:30.374Z,11.10
2017-12-30T02:10:56.331Z,13.68
2017-12-30T02:13:22.332Z,12.47
2017-12-30T02:15:49.046Z,12.00
2017-12-30T02:18:15.031Z,13.23
2017-12-30T02:20:41.037Z,11.20
2017-12-30T02:23:07.020Z,11.98
2017-12-30T02:25:33.350Z,10.40
2017-12-30T02:27:59.287Z,12.77
2017-12-30T02:30:26.017Z,12.60
2017-12-30T02:32:52.724Z,12.87
2017-12-30T02:35:18.690Z,13.38
2017-12-30T02:37:45.389Z,14.27
2017-12-30T02:40:11.339Z,13.13
2017-12-30T02:42:38.027Z,11.30
2017-12-30T02:45:03.985Z,11.25
2017-12-30T02:47:29.919Z,10.55
2017-12-30T02:49:56.614Z,11.05
2017-12-30T02:52:22.608Z,13.88
2017-12-30T02:54:48.582Z,10.68
2017-12-30T02:57:14.543Z,12.87
2017-12-30T02:59:40.506Z,11.63
2017-12-30T03:02:06.461Z,13.75
2017-12-30T03:04:33.148Z,12.80
2017-12-30T03:06:59.137Z,14.27
2017-12-30T03:09:25.139Z,15.70
2017-12-30T03:11:51.843Z,14.65
2017-12-30T03:14:17.798Z,14.77
2017-12-30T03:16:44.487Z,14.35
2017-12-30T03:19:10.440Z,16.33
2017-12-30T03:21:36.408Z,15.25
2017-12-30T03:24:02.384Z,15.37
2017-12-30T03:26:28.507Z,16.77
2017-12-30T03:28:54.471Z,16.65
2017-12-30T03:31:20.451Z,14.90
2017-12-30T03:33:47.200Z,18.50
2017-12-30T03:36:13.899Z,18.30
2017-12-30T03:38:39.858Z,21.30
2017-12-30T03:41:05.846Z,17.23
2017-12-30T03:43:31.831Z,18.42
2017-12-30T03:45:57.792Z,18.98
2017-12-30T03:48:24.057Z,19.03
2017-12-30T03:50:50.764Z,17.93
2017-12-30T03:53:16.723Z,19.05
2017-12-30T03:55:43.613Z,19.87
2017-12-30T03:58:09.573Z,19.85
2017-12-30T04:00:35.523Z,18.03
2017-12-30T04:03:01.547Z,19.62
2017-12-30T04:05:27.497Z,21.75
2017-12-30T04:07:53.467Z,21.40
2017-12-30T04:10:20.192Z,20.02
2017-12-30T04:12:46.160Z,20.02
2017-12-30T04:15:12.169Z,19.95
2017-12-30T04:17:38.464Z,17.70
2017-12-30T04:20:04.427Z,19.95
2017-12-30T04:22:30.390Z,20.37
2017-12-30T04:24:56.362Z,20.20
2017-12-30T04:27:22.314Z,21.02
2017-12-30T04:29:48.263Z,25.15
2017-12-30T04:32:14.261Z,18.37
2017-12-30T04:34:40.238Z,22.42
2017-12-30T04:37:06.923Z,20.50
2017-12-30T04:39:32.877Z,18.67
2017-12-30T04:41:58.828Z,18.10
2017-12-30T04:44:24.801Z,19.00
2017-12-30T04:46:50.742Z,18.93
2017-12-30T04:49:17.443Z,21.10
2017-12-30T04:51:43.411Z,21.47
2017-12-30T04:54:10.104Z,22.70
2017-12-30T04:56:36.054Z,18.07
2017-12-30T04:59:02.069Z,19.70
2017-12-30T05:01:28.154Z,22.35
2017-12-30T05:03:54.154Z,18.55
2017-12-30T05:06:20.167Z,21.10
2017-12-30T05:08:46.119Z,21.75
2017-12-30T05:11:12.103Z,24.70
2017-12-30T05:13:38.068Z,21.73
2017-12-30T05:16:04.011Z,24.77
2017-12-30T05:18:29.998Z,27.42
2017-12-30T05:20:55.960Z,23.23
2017-12-30T05:23:21.927Z,26.40
2017-12-30T05:25:48.119Z,32.83
2017-12-30T05:28:14.071Z,24.07
2017-12-30T05:30:40.023Z,24.23
2017-12-30T05:33:05.984Z,23.42
2017-12-30T05:35:31.929Z,29.58
2017-12-30T05:37:58.630Z,25.52
2017-12-30T05:40:24.588Z,26.62
2017-12-30T05:42:51.301Z,24.77
2017-12-30T05:45:17.282Z,28.25
2017-12-30T05:47:43.239Z,20.65
2017-12-30T05:50:09.219Z,23.55
2017-12-30T05:52:35.218Z,26.60
2017-12-30T05:55:01.189Z,29.13
2017-12-30T05:57:27.166Z,25.90
2017-12-30T05:59:53.456Z,27.52
2017-12-30T06:02:19.413Z,21.70
2017-12-30T06:04:45.363Z,25.33
2017-12-30T06:07:11.334Z,30.20
2017-12-30T06:09:38.028Z,28.05
2017-12-30T06:12:04.012Z,25.15
2017-12-30T06:14:29.987Z,25.70
2017-12-30T06:16:55.963Z,23.85
2017-12-30T06:19:21.903Z,25.43
2017-12-30T06:21:47.863Z,21.10
2017-12-30T06:24:13.794Z,27.53
2017-12-30T06:26:40.523Z,26.83
2017-12-30T06:29:06.460Z,27.67
2017-12-30T06:31:33.155Z,27.00
2017-12-30T06:33:59.115Z,27.45
2017-12-30T06:36:25.837Z,26.45
2017-12-30T06:38:51.804Z,24.35
2017-12-30T06:41:17.800Z,26.37
2017-12-30T06:43:44.499Z,26.08
2017-12-30T06:46:10.473Z,27.20
2017-12-30T06:48:37.199Z,26.73
2017-12-30T06:51:03.884Z,28.35
2017-12-30T06:53:29.879Z,26.58
2017-12-30T06:55:55.864Z,24.97
2017-12-30T06:58:21.813Z,24.73
2017-12-30T07:00:47.796Z,30.00
2017-12-30T07:03:13.931Z,35.22
2017-12-30T07:05:39.895Z,26.25
2017-12-30T07:08:05.884Z,26.73
2017-12-30T07:10:31.824Z,27.02
2017-12-30T07:12:57.764Z,26.08
2017-12-30T07:15:23.715Z,26.10
2017-12-30T07:17:49.703Z,27.90
2017-12-30T07:20:15.657Z,27.73
2017-12-30T07:22:41.626Z,27.45
2017-12-30T07:25:07.611Z,28.40
2017-12-30T07:27:33.563Z,25.65
2017-12-30T07:30:00.310Z,25.90
2017-12-30T07:32:26.547Z,24.77
2017-12-30T07:34:52.496Z,29.58
2017-12-30T07:37:25.583Z,26.83
2017-12-30T07:39:51.560Z,27.83
2017-12-30T07:42:18.279Z,31.90
2017-12-30T07:44:44.251Z,27.60
2017-12-30T07:47:10.206Z,25.00
2017-12-30T07:49:36.169Z,27.37
2017-12-30T07:52:02.864Z,21.67
2017-12-30T07:54:28.844Z,26.40
2017-12-30T07:56:54.818Z,29.77
2017-12-30T07:59:20.767Z,25.10
2017-12-30T08:01:47.459Z,33.47
2017-12-30T08:04:13.438Z,25.00
2017-12-30T08:06:39.426Z,25.48
2017-12-30T08:09:05.403Z,28.25
2017-12-30T08:11:31.378Z,24.75
2017-12-30T08:13:58.071Z,27.13
2017-12-30T08:16:24.041Z,27.50
2017-12-30T08:18:50.758Z,27.87
2017-12-30T08:21:17.443Z,27.83
2017-12-30T08:23:43.403Z,23.87
2017-12-30T08:26:09.379Z,23.10
2017-12-30T08:28:35.343Z,30.40
2017-12-30T08:31:01.357Z,25.85
2017-12-30T08:33:27.311Z,27.45
2017-12-30T08:35:53.254Z,28.17
2017-12-30T08:38:19.946Z,22.42
2017-12-30T08:40:46.051Z,18.80
2017-12-30T08:43:12.029Z,21.62
2017-12-30T08:45:38.746Z,18.87
2017-12-30T08:48:04.715Z,22.45
2017-12-30T08:50:30.678Z,26.80
2017-12-30T08:52:56.644Z,24.85
2017-12-30T08:55:23.335Z,27.15
2017-12-30T08:57:49.303Z,22.02
2017-12-30T09:00:15.984Z,21.80
2017-12-30T09:02:41.979Z,20.60
2017-12-30T09:05:07.963Z,21.08
2017-12-30T09:07:33.923Z,23.73
2017-12-30T09:09:59.859Z,22.48
2017-12-30T09:12:25.815Z,21.30
2017-12-30T09:14:51.768Z,21.67
2017-12-30T09:17:18.463Z,22.57
2017-12-30T09:19:44.699Z,23.35
2017-12-30T09:22:10.643Z,23.33
2017-12-30T09:24:37.341Z,19.30
2017-12-30T09:27:03.307Z,20.15
2017-12-30T09:29:30.003Z,20.25
2017-12-30T09:31:55.935Z,20.97
2017-12-30T09:34:22.076Z,20.12
2017-12-30T09:36:48.771Z,21.85
2017-12-30T09:39:14.727Z,22.05
2017-12-30T09:41:40.684Z,21.33
2017-12-30T09:44:06.640Z,19.17
2017-12-30T09:46:32.615Z,22.37
2017-12-30T09:48:59.327Z,19.60
2017-12-30T09:51:25.304Z,20.15
2017-12-30T09:53:51.244Z,19.97
2017-12-30T09:56:17.181Z,17.70
2017-12-30T09:58:43.151Z,18.42
2017-12-30T10:01:09.100Z,19.20
2017-12-30T10:03:35.255Z,23.70
2017-12-30T10:06:01.219Z,17.35
2017-12-30T10:08:27.175Z,16.95
2017-12-30T10:10:53.144Z,20.23
2017-12-30T10:13:19.848Z,21.27
2017-12-30T10:15:45.827Z,18.00
2017-12-30T10:18:11.792Z,17.93
2017-12-30T10:20:37.751Z,17.70
2017-12-30T10:23:04.447Z,16.55
2017-12-30T10:25:30.407Z,15.52
2017-12-30T10:27:57.107Z,18.12
2017-12-30T10:30:23.348Z,17.87
2017-12-30T10:32:49.337Z,16.98
2017-12-30T10:35:15.282Z,19.67
2017-12-30T10:37:41.287Z,19.65
2017-12-30T10:40:07.238Z,17.33
2017-12-30T10:42:33.190Z,17.10
2017-12-30T10:44:59.203Z,18.42
2017-12-30T10:47:25.883Z,16.12
2017-12-30T10:49:51.845Z,22.52
2017-12-30T10:52:18.580Z,15.43
2017-12-30T10:54:44.567Z,15.45
2017-12-30T10:57:10.538Z,16.50
2017-12-30T10:59:37.287Z,14.43
2017-12-30T11:02:04.004Z,15.37
2017-12-30T11:04:29.979Z,14.95
2017-12-30T11:06:56.147Z,16.70
2017-12-30T11:09:22.141Z,12.37
2017-12-30T11:11:48.117Z,14.65
2017-12-30T11:14:14.096Z,13.30
2017-12-30T11:16:40.043Z,13.85
2017-12-30T11:19:06.743Z,14.90
2017-12-30T11:21:32.728Z,14.82
2017-12-30T11:23:58.691Z,13.98
2017-12-30T11:26:24.652Z,12.90
2017-12-30T11:28:51.373Z,12.65
2017-12-30T11:31:17.352Z,12.55
2017-12-30T11:33:43.306Z,12.05
2017-12-30T11:36:09.279Z,14.25
2017-12-30T11:38:35.251Z,15.90
2017-12-30T11:41:01.215Z,9.37
2017-12-30T11:43:27.512Z,13.07
2017-12-30T11:45:53.483Z,13.45
2017-12-30T11:48:19.440Z,10.75
2017-12-30T11:50:45.411Z,9.63
2017-12-30T11:53:11.376Z,13.68
2017-12-30T11:55:37.348Z,7.67
2017-12-30T11:58:03.311Z,15.05
2017-12-30T12:00:29.483Z,7.82
2017-12-30T12:02:56.173Z,12.63
2017-12-30T12:05:22.491Z,9.65
2017-12-30T12:07:48.491Z,10.48
2017-12-30T12:10:14.455Z,12.23
2017-12-30T12:12:40.430Z,10.95
2017-12-30T12:15:06.416Z,12.50
2017-12-30T12:17:32.423Z,11.15
2017-12-30T12:19:58.402Z,14.27
2017-12-30T12:22:25.993Z,12.17
2017-12-30T12:24:51.923Z,11.10
2017-12-30T12:27:17.889Z,8.17
2017-12-30T12:29:44.079Z,10.50
2017-12-30T12:32:10.060Z,10.77
2017-12-30T12:34:36.026Z,12.77
2017-12-30T12:37:02.352Z,11.05
2017-12-30T12:39:28.309Z,6.72
2017-12-30T12:41:54.263Z,23.10
2017-12-30T12:44:20.212Z,61.17
2017-12-30T12:46:46.183Z,12.07
2017-12-30T12:49:12.150Z,10.00
2017-12-30T12:51:38.099Z,11.75
2017-12-30T12:54:04.815Z,9.63
2017-12-30T12:56:30.820Z,9.70
2017-12-30T12:58:56.780Z,13.57
2017-12-30T13:01:23.581Z,9.07
2017-12-30T13:03:49.547Z,9.90
2017-12-30T13:06:16.285Z,10.70
2017-12-30T13:08:42.976Z,14.40
2017-12-30T13:11:09.242Z,10.27
2017-12-30T13:13:35.159Z,10.07
2017-12-30T13:16:01.887Z,10.73
2017-12-30T13:18:27.865Z,10.50
2017-12-30T13:20:53.827Z,8.48
2017-12-30T13:23:19.803Z,8.63
2017-12-30T13:25:45.768Z,8.73
2017-12-30T13:28:11.737Z,10.47
2017-12-30T13:30:37.727Z,8.90
2017-12-30T13:33:04.431Z,11.05
2017-12-30T13:35:30.428Z,7.45
2017-12-30T13:37:56.439Z,9.27
2017-12-30T13:40:22.407Z,9.03
2017-12-30T13:42:48.384Z,7.45
2017-12-30T13:45:14.704Z,6.47
2017-12-30T13:47:40.690Z,5.35
2017-12-30T13:50:06.664Z,8.50
2017-12-30T13:52:32.947Z,10.60
2017-12-30T13:54:58.908Z,5.50
2017-12-30T13:57:24.881Z,5.80
2017-12-30T13:59:50.932Z,6.50
2017-12-30T14:02:17.647Z,4.70
2017-12-30T14:04:43.611Z,5.33
2017-12-30T14:07:09.958Z,3.47
2017-12-30T14:09:35.968Z,5.53
2017-12-30T14:12:02.257Z,4.40
2017-12-30T14:14:29.021Z,5.85
2017-12-30T14:16:54.998Z,5.37
2017-12-30T14:19:20.987Z,6.10
2017-12-30T14:21:46.955Z,4.82
2017-12-30T14:24:12.915Z,3.83
2017-12-30T14:26:38.919Z,3.27
2017-12-30T14:29:05.644Z,6.10
2017-12-30T14:31:32.377Z,3.10
2017-12-30T14:33:58.350Z,4.18
2017-12-30T14:36:24.313Z,3.60
2017-12-30T14:38:50.270Z,2.90
2017-12-30T14:41:16.235Z,3.72
2017-12-30T14:43:42.195Z,2.62
2017-12-30T14:46:08.927Z,2.75
2017-12-30T14:48:35.860Z,4.10
2017-12-30T14:51:01.824Z,34.20
2017-12-30T14:53:27.812Z,19.50
2017-12-30T14:55:54.564Z,11.00
2017-12-30T14:58:21.288Z,51.60
2017-12-30T15:00:47.263Z,4.72
2017-12-30T15:03:13.242Z,4.17
2017-12-30T15:05:39.936Z,4.40
2017-12-30T15:08:06.279Z,3.20
2017-12-30T15:10:32.263Z,3.53
2017-12-30T15:12:58.223Z,3.40
2017-12-30T15:15:24.186Z,4.37
2017-12-30T15:17:51.000Z,4.75
2017-12-30T15:20:16.952Z,4.60
2017-12-30T15:22:42.911Z,4.30
2017-12-30T15:25:08.912Z,3.60
2017-12-30T15:27:34.846Z,5.33
2017-12-30T15:30:00.800Z,3.80
2017-12-30T15:32:26.767Z,3.90
2017-12-30T15:34:52.735Z,3.92
2017-12-30T15:37:18.738Z,3.80
2017-12-30T15:39:44.699Z,4.10
2017-12-30T15:42:11.430Z,4.03
2017-12-30T15:44:37.367Z,6.50
2017-12-30T15:47:04.107Z,4.80
2017-12-30T15:49:30.833Z,4.50
2017-12-30T15:51:56.783Z,4.62
2017-12-30T15:54:22.736Z,6.50
2017-12-30T15:56:48.695Z,4.43
2017-12-30T15:59:15.418Z,4.25
2017-12-30T16:01:41.384Z,3.90
2017-12-30T16:04:07.359Z,4.78
2017-12-30T16:06:33.327Z,5.35
2017-12-30T16:08:59.320Z,6.97
2017-12-30T16:11:25.535Z,6.97
2017-12-30T16:13:51.497Z,6.87
2017-12-30T16:16:17.463Z,7.43
2017-12-30T16:18:43.469Z,9.00
2017-12-30T16:21:09.420Z,12.10
2017-12-30T16:23:36.167Z,8.38
2017-12-30T16:26:02.142Z,10.02
2017-12-30T16:28:28.115Z,14.65
2017-12-30T16:30:54.073Z,16.27
2017-12-30T16:33:20.064Z,14.27
2017-12-30T16:35:46.774Z,17.03
2017-12-30T16:38:12.744Z,17.40
2017-12-30T16:40:39.547Z,17.47
2017-12-30T16:43:12.404Z,17.10
2017-12-30T16:45:38.373Z,13.15
2017-12-30T16:48:05.083Z,12.60
2017-12-30T16:50:31.052Z,12.15
2017-12-30T16:52:57.014Z,11.55
2017-12-30T16:55:23.155Z,17.70
2017-12-30T16:57:49.124Z,11.10
2017-12-30T17:00:15.085Z,10.27
2017-12-30T17:02:41.057Z,10.77
2017-12-30T17:05:07.800Z,8.85
2017-12-30T17:07:33.765Z,10.18
2017-12-30T17:09:59.768Z,7.65
2017-12-30T17:12:25.711Z,12.83
2017-12-30T17:14:51.682Z,10.52
2017-12-30T17:17:17.655Z,7.15
2017-12-30T17:19:43.619Z,8.02
2017-12-30T17:22:10.350Z,4.78
2017-12-30T17:24:37.083Z,11.27
2017-12-30T17:27:03.779Z,4.87
2017-12-30T17:29:29.779Z,7.53
2017-12-30T17:31:55.742Z,5.90
2017-12-30T17:34:21.706Z,3.87
2017-12-30T17:36:47.655Z,6.07
2017-12-30T17:39:13.627Z,7.05
2017-12-30T17:41:40.315Z,5.62
2017-12-30T17:44:06.292Z,7.00
2017-12-30T17:46:32.984Z,6.20
2017-12-30T17:48:58.971Z,5.87
2017-12-30T17:51:24.924Z,7.10
2017-12-30T17:53:50.904Z,6.55
2017-12-30T17:56:16.891Z,9.75
2017-12-30T17:58:42.851Z,7.55
2017-12-30T18:01:08.836Z,6.55
2017-12-30T18:03:34.807Z,11.55
2017-12-30T18:06:00.776Z,6.70
2017-12-30T18:08:26.735Z,9.37
2017-12-30T18:10:52.695Z,7.65
2017-12-30T18:13:18.678Z,7.50
2017-12-30T18:15:44.656Z,8.18
2017-12-30T18:18:12.114Z,9.27
2017-12-30T18:20:38.139Z,7.32
2017-12-30T18:23:04.859Z,10.17
2017-12-30T18:25:30.819Z,7.12
2017-12-30T18:27:57.524Z,9.05
2017-12-30T18:30:23.491Z,6.60
2017-12-30T18:32:50.207Z,14.10
2017-12-30T18:35:16.175Z,10.60
2017-12-30T18:37:42.159Z,6.85
2017-12-30T18:40:08.901Z,9.65
2017-12-30T18:42:35.592Z,10.57
2017-12-30T18:45:01.608Z,7.07
2017-12-30T18:47:27.609Z,7.07
2017-12-30T18:49:53.568Z,11.00
2017-12-30T18:52:19.546Z,7.55
2017-12-30T18:54:45.538Z,9.30
2017-12-30T18:57:11.491Z,9.30
2017-12-30T18:59:37.460Z,10.20
2017-12-30T19:02:03.433Z,9.88
2017-12-30T19:04:29.420Z,10.48
2017-12-30T19:06:56.123Z,6.00
2017-12-30T19:09:22.110Z,11.77
2017-12-30T19:11:48.296Z,14.95
2017-12-30T19:14:14.257Z,10.77
2017-12-30T19:16:40.224Z,8.45
2017-12-30T19:19:07.081Z,9.45
2017-12-30T19:21:33.027Z,9.70
2017-12-30T19:23:59.744Z,9.63
2017-12-30T19:26:25.704Z,9.05
2017-12-30T19:28:51.685Z,8.23
2017-12-30T19:31:17.638Z,7.70
2017-12-30T19:33:44.341Z,9.90
2017-12-30T19:36:10.314Z,9.20
2017-12-30T19:38:36.311Z,10.98
2017-12-30T19:41:03.025Z,9.85
2017-12-30T19:43:28.963Z,7.50
2017-12-30T19:45:56.827Z,11.23
2017-12-30T19:48:23.550Z,12.23
2017-12-30T19:50:49.497Z,7.27
2017-12-30T19:53:16.230Z,8.75
2017-12-30T19:55:42.931Z,9.90
2017-12-30T19:58:08.908Z,12.57
2017-12-30T20:00:35.095Z,8.82
2017-12-30T20:03:01.063Z,8.02
2017-12-30T20:05:27.028Z,9.57
2017-12-30T20:07:54.492Z,9.77
2017-12-30T20:10:20.453Z,9.13
2017-12-30T20:12:46.416Z,9.45
2017-12-30T20:15:12.866Z,10.60
2017-12-30T20:17:38.840Z,10.90
2017-12-30T20:20:04.799Z,11.27
2017-12-30T20:22:30.765Z,8.82
2017-12-30T20:24:56.768Z,8.30
2017-12-30T20:27:23.528Z,10.43
2017-12-30T20:29:49.484Z,7.47
2017-12-30T20:32:15.463Z,11.15
2017-12-30T20:34:42.496Z,11.40
2017-12-30T20:37:09.236Z,9.50
2017-12-30T20:39:35.956Z,9.90
2017-12-30T20:42:02.195Z,9.65
2017-12-30T20:44:28.148Z,8.73
2017-12-30T20:47:01.113Z,10.27
2017-12-30T20:49:27.823Z,8.95
2017-12-30T20:51:53.788Z,5.60
2017-12-30T20:54:19.763Z,9.13
2017-12-30T20:56:45.900Z,7.65
2017-12-30T20:59:11.874Z,9.52
2017-12-30T21:01:37.820Z,10.57
2017-12-30T21:04:03.807Z,7.95
2017-12-30T21:06:29.777Z,7.70
2017-12-30T21:08:55.728Z,9.50
2017-12-30T21:11:22.663Z,9.25
2017-12-30T21:13:49.532Z,7.10
2017-12-30T21:16:16.324Z,7.05
2017-12-30T21:18:42.563Z,8.02
2017-12-30T21:21:08.519Z,8.95
2017-12-30T21:23:34.524Z,8.63
2017-12-30T21:26:01.359Z,8.20
2017-12-30T21:28:28.067Z,6.43
2017-12-30T21:30:54.037Z,10.95
2017-12-30T21:33:20.951Z,11.45
2017-12-30T21:35:46.924Z,12.07
2017-12-30T21:38:12.884Z,13.60
2017-12-30T21:40:38.851Z,13.20
2017-12-30T21:43:04.872Z,13.88
2017-12-30T21:45:30.864Z,14.65
2017-12-30T21:47:56.831Z,18.15
2017-12-30T21:50:22.839Z,9.73
2017-12-30T21:52:48.811Z,14.07
2017-12-30T21:55:14.779Z,15.88
2017-12-30T21:57:40.793Z,14.77
2017-12-30T22:00:06.769Z,15.20
2017-12-30T22:02:32.704Z,15.80
2017-12-30T22:04:58.680Z,14.38
2017-12-30T22:07:31.737Z,14.73
2017-12-30T22:09:58.443Z,11.77
2017-12-30T22:12:24.416Z,10.80
2017-12-30T22:14:50.415Z,14.47
2017-12-30T22:17:17.112Z,14.15
2017-12-30T22:19:43.061Z,10.15
2017-12-30T22:22:09.392Z,14.73
2017-12-30T22:24:36.108Z,10.85
2017-12-30T22:27:02.068Z,12.60
2017-12-30T22:29:28.776Z,14.98
2017-12-30T22:31:54.747Z,10.15
2017-12-30T22:34:20.724Z,11.27
2017-12-30T22:36:46.700Z,17.05
2017-12-30T22:39:12.681Z,17.37
2017-12-30T22:41:39.397Z,16.00
2017-12-30T22:44:05.376Z,15.73
2017-12-30T22:46:31.331Z,17.40
2017-12-30T22:48:57.327Z,14.77
2017-12-30T22:51:23.275Z,14.40
2017-12-30T22:53:49.234Z,20.62
2017-12-30T22:56:15.941Z,13.23
2017-12-30T22:58:41.911Z,16.17
2017-12-30T23:01:07.897Z,16.80
2017-12-30T23:03:33.860Z,17.80
2017-12-30T23:05:59.823Z,17.30
2017-12-30T23:08:25.800Z,15.10
2017-12-30T23:10:51.779Z,23.50
2017-12-30T23:13:17.732Z,16.83
2017-12-30T23:15:44.457Z,15.80
2017-12-30T23:18:11.477Z,18.20
2017-12-30T23:20:37.448Z,16.73
2017-12-30T23:23:03.419Z,17.80
2017-12-30T23:25:29.389Z,16.90
2017-12-30T23:27:55.371Z,17.62
2017-12-30T23:30:21.353Z,15.87
2017-12-30T23:32:47.308Z,15.60
2017-12-30T23:35:13.285Z,17.10
2017-12-30T23:37:39.263Z,18.60
2017-12-30T23:40:05.234Z,20.17
2017-12-30T23:42:31.208Z,19.30
2017-12-30T23:44:57.246Z,20.90
2017-12-30T23:47:23.944Z,18.95
2017-12-30T23:49:49.929Z,22.35
2017-12-30T23:52:15.935Z,24.03
2017-12-30T23:54:41.903Z,18.67
2017-12-30T23:57:07.882Z,19.52
2017-12-30T23:59:33.839Z,23.90
